Terminal Aerodrome Forecast
Issued by NWS Raleigh/Durham, NC

Home | Current Version | Previous Version | Text Only | Print | Product List | Glossary On
Versions: 1 2 3 4 5 6 7 8 9 10 11 12 13 14 15 16 17 18 19 20 21 22 23 24 25 26 27 28
000
FTUS42 KRAH 250538
TAFRDU
TAF
KRDU 250538Z 2506/2606 04011G18KT 2SM RA BR BKN009 OVC015
      WS020/05045KT
      TEMPO 2507/2510 5SM -RA BR OVC006
     FM251000 05011KT P6SM VCSH OVC006
     FM251400 VRB06KT P6SM VCSH BKN015 PROB30 2517/2523 2SM TSRA
      SCT015 OVC025CB
     FM260100 VRB03KT 6SM BR BKN010=

USA.gov is the U.S. government's official web portal to all federal, state and local government web resources and services.